sensor_id;sensor_type;location;lat;lon;timestamp;temperature;humidity
68433;DHT22;55412;51.350;17.056;2023-04-24T00:00:22;13.90;78.00
68433;DHT22;55412;51.350;17.056;2023-04-24T00:02:48;13.90;77.60
68433;DHT22;55412;51.350;17.056;2023-04-24T00:05:15;13.90;77.50
68433;DHT22;55412;51.350;17.056;2023-04-24T00:07:44;14.00;77.60
68433;DHT22;55412;51.350;17.056;2023-04-24T00:10:11;14.00;76.70
68433;DHT22;55412;51.350;17.056;2023-04-24T00:12:38;14.00;77.00
68433;DHT22;55412;51.350;17.056;2023-04-24T00:15:04;14.00;76.10
68433;DHT22;55412;51.350;17.056;2023-04-24T00:17:31;14.10;75.20
68433;DHT22;55412;51.350;17.056;2023-04-24T00:19:57;14.10;75.30
68433;DHT22;55412;51.350;17.056;2023-04-24T00:22:28;14.10;74.90
68433;DHT22;55412;51.350;17.056;2023-04-24T00:24:54;14.10;74.90
68433;DHT22;55412;51.350;17.056;2023-04-24T00:27:21;14.20;74.80
68433;DHT22;55412;51.350;17.056;2023-04-24T00:29:47;14.20;75.10
68433;DHT22;55412;51.350;17.056;2023-04-24T00:32:13;14.20;75.40
68433;DHT22;55412;51.350;17.056;2023-04-24T00:34:39;14.10;77.10
68433;DHT22;55412;51.350;17.056;2023-04-24T00:37:06;14.00;78.50
68433;DHT22;55412;51.350;17.056;2023-04-24T00:39:32;13.90;79.30
68433;DHT22;55412;51.350;17.056;2023-04-24T00:41:59;13.80;80.00
68433;DHT22;55412;51.350;17.056;2023-04-24T00:44:25;13.80;81.10
68433;DHT22;55412;51.350;17.056;2023-04-24T00:46:51;13.70;81.90
68433;DHT22;55412;51.350;17.056;2023-04-24T00:49:20;13.60;82.20
68433;DHT22;55412;51.350;17.056;2023-04-24T00:51:47;13.50;82.70
68433;DHT22;55412;51.350;17.056;2023-04-24T00:54:15;13.50;83.40
68433;DHT22;55412;51.350;17.056;2023-04-24T00:56:42;13.50;83.30
68433;DHT22;55412;51.350;17.056;2023-04-24T00:59:08;13.40;83.50
68433;DHT22;55412;51.350;17.056;2023-04-24T01:01:35;13.40;84.20
68433;DHT22;55412;51.350;17.056;2023-04-24T01:04:01;13.30;84.70
68433;DHT22;55412;51.350;17.056;2023-04-24T01:06:29;13.30;84.30
68433;DHT22;55412;51.350;17.056;2023-04-24T01:08:57;13.30;84.20
68433;DHT22;55412;51.350;17.056;2023-04-24T01:11:25;13.30;84.10
68433;DHT22;55412;51.350;17.056;2023-04-24T01:13:52;13.30;84.40
68433;DHT22;55412;51.350;17.056;2023-04-24T01:16:18;13.30;83.60
68433;DHT22;55412;51.350;17.056;2023-04-24T01:18:47;13.30;83.30
68433;DHT22;55412;51.350;17.056;2023-04-24T01:21:15;13.30;83.50
68433;DHT22;55412;51.350;17.056;2023-04-24T01:23:45;13.30;83.20
68433;DHT22;55412;51.350;17.056;2023-04-24T01:26:13;13.30;82.90
68433;DHT22;55412;51.350;17.056;2023-04-24T01:28:42;13.30;82.60
68433;DHT22;55412;51.350;17.056;2023-04-24T01:31:08;13.30;82.80
68433;DHT22;55412;51.350;17.056;2023-04-24T01:33:34;13.30;83.30
68433;DHT22;55412;51.350;17.056;2023-04-24T01:36:01;13.30;83.80
68433;DHT22;55412;51.350;17.056;2023-04-24T01:38:27;13.30;82.70
68433;DHT22;55412;51.350;17.056;2023-04-24T01:40:53;13.30;82.20
68433;DHT22;55412;51.350;17.056;2023-04-24T01:43:19;13.30;81.70
68433;DHT22;55412;51.350;17.056;2023-04-24T01:45:46;13.30;81.90
68433;DHT22;55412;51.350;17.056;2023-04-24T01:48:12;13.30;82.20
68433;DHT22;55412;51.350;17.056;2023-04-24T01:50:39;13.30;82.00
68433;DHT22;55412;51.350;17.056;2023-04-24T01:53:05;13.30;82.20
68433;DHT22;55412;51.350;17.056;2023-04-24T01:55:31;13.30;82.40
68433;DHT22;55412;51.350;17.056;2023-04-24T01:57:58;13.20;82.90
68433;DHT22;55412;51.350;17.056;2023-04-24T02:00:25;13.20;82.70
68433;DHT22;55412;51.350;17.056;2023-04-24T02:02:51;13.20;82.80
68433;DHT22;55412;51.350;17.056;2023-04-24T02:05:17;13.10;82.60
68433;DHT22;55412;51.350;17.056;2023-04-24T02:07:43;13.10;82.70
68433;DHT22;55412;51.350;17.056;2023-04-24T02:10:10;13.10;82.80
68433;DHT22;55412;51.350;17.056;2023-04-24T02:12:36;13.10;83.70
68433;DHT22;55412;51.350;17.056;2023-04-24T02:15:03;13.10;83.40
68433;DHT22;55412;51.350;17.056;2023-04-24T02:17:29;13.00;83.20
68433;DHT22;55412;51.350;17.056;2023-04-24T02:19:56;13.00;83.10
68433;DHT22;55412;51.350;17.056;2023-04-24T02:22:22;13.00;82.60
68433;DHT22;55412;51.350;17.056;2023-04-24T02:24:48;13.00;83.00
68433;DHT22;55412;51.350;17.056;2023-04-24T02:27:14;13.00;82.70
68433;DHT22;55412;51.350;17.056;2023-04-24T02:29:40;13.00;82.90
68433;DHT22;55412;51.350;17.056;2023-04-24T02:32:06;13.00;82.70
68433;DHT22;55412;51.350;17.056;2023-04-24T02:34:34;13.00;82.70
68433;DHT22;55412;51.350;17.056;2023-04-24T02:37:00;13.00;82.70
68433;DHT22;55412;51.350;17.056;2023-04-24T02:39:26;13.00;82.90
68433;DHT22;55412;51.350;17.056;2023-04-24T02:41:52;13.00;82.60
68433;DHT22;55412;51.350;17.056;2023-04-24T02:44:18;13.00;82.40
68433;DHT22;55412;51.350;17.056;2023-04-24T02:46:44;13.00;82.40
68433;DHT22;55412;51.350;17.056;2023-04-24T02:49:11;13.00;82.50
68433;DHT22;55412;51.350;17.056;2023-04-24T02:51:37;13.00;82.20
68433;DHT22;55412;51.350;17.056;2023-04-24T02:54:07;13.00;81.80
68433;DHT22;55412;51.350;17.056;2023-04-24T02:56:35;13.00;81.50
68433;DHT22;55412;51.350;17.056;2023-04-24T02:59:01;13.00;81.10
68433;DHT22;55412;51.350;17.056;2023-04-24T03:01:28;13.00;81.80
68433;DHT22;55412;51.350;17.056;2023-04-24T03:03:54;13.00;81.70
68433;DHT22;55412;51.350;17.056;2023-04-24T03:06:20;13.00;81.90
68433;DHT22;55412;51.350;17.056;2023-04-24T03:08:46;12.90;81.40
68433;DHT22;55412;51.350;17.056;2023-04-24T03:11:13;12.90;81.50
68433;DHT22;55412;51.350;17.056;2023-04-24T03:13:39;13.00;80.90
68433;DHT22;55412;51.350;17.056;2023-04-24T03:16:06;13.00;81.30
68433;DHT22;55412;51.350;17.056;2023-04-24T03:18:32;13.00;80.90
68433;DHT22;55412;51.350;17.056;2023-04-24T03:20:57;13.00;81.50
68433;DHT22;55412;51.350;17.056;2023-04-24T03:23:24;12.90;80.00
68433;DHT22;55412;51.350;17.056;2023-04-24T03:25:50;12.90;80.60
68433;DHT22;55412;51.350;17.056;2023-04-24T03:28:16;13.00;79.90
68433;DHT22;55412;51.350;17.056;2023-04-24T03:30:42;13.00;78.90
68433;DHT22;55412;51.350;17.056;2023-04-24T03:33:08;13.00;79.30
68433;DHT22;55412;51.350;17.056;2023-04-24T03:35:35;13.00;78.70
68433;DHT22;55412;51.350;17.056;2023-04-24T03:38:01;13.00;78.60
68433;DHT22;55412;51.350;17.056;2023-04-24T03:40:29;13.00;77.40
68433;DHT22;55412;51.350;17.056;2023-04-24T03:42:56;13.10;77.70
68433;DHT22;55412;51.350;17.056;2023-04-24T03:45:22;13.10;76.60
68433;DHT22;55412;51.350;17.056;2023-04-24T03:47:48;13.20;76.80
68433;DHT22;55412;51.350;17.056;2023-04-24T03:50:14;13.20;77.60
68433;DHT22;55412;51.350;17.056;2023-04-24T03:52:40;13.20;77.00
68433;DHT22;55412;51.350;17.056;2023-04-24T03:55:07;13.20;75.70
68433;DHT22;55412;51.350;17.056;2023-04-24T03:57:33;13.20;75.60
68433;DHT22;55412;51.350;17.056;2023-04-24T03:59:59;13.20;75.20
68433;DHT22;55412;51.350;17.056;2023-04-24T04:02:25;13.20;75.90
68433;DHT22;55412;51.350;17.056;2023-04-24T04:04:51;13.30;76.10
68433;DHT22;55412;51.350;17.056;2023-04-24T04:07:17;13.30;76.80
68433;DHT22;55412;51.350;17.056;2023-04-24T04:09:43;13.20;76.50
68433;DHT22;55412;51.350;17.056;2023-04-24T04:12:09;13.20;77.10
68433;DHT22;55412;51.350;17.056;2023-04-24T04:14:35;13.10;77.40
68433;DHT22;55412;51.350;17.056;2023-04-24T04:17:01;13.10;77.30
68433;DHT22;55412;51.350;17.056;2023-04-24T04:19:27;13.10;76.90
68433;DHT22;55412;51.350;17.056;2023-04-24T04:21:53;13.10;77.00
68433;DHT22;55412;51.350;17.056;2023-04-24T04:24:21;13.10;76.50
68433;DHT22;55412;51.350;17.056;2023-04-24T04:26:48;13.10;76.30
68433;DHT22;55412;51.350;17.056;2023-04-24T04:29:17;13.10;76.40
68433;DHT22;55412;51.350;17.056;2023-04-24T04:31:46;13.10;76.60
68433;DHT22;55412;51.350;17.056;2023-04-24T04:34:12;13.10;76.50
68433;DHT22;55412;51.350;17.056;2023-04-24T04:36:40;13.10;76.20
68433;DHT22;55412;51.350;17.056;2023-04-24T04:39:06;13.10;76.60
68433;DHT22;55412;51.350;17.056;2023-04-24T04:41:33;13.10;76.00
68433;DHT22;55412;51.350;17.056;2023-04-24T04:44:01;13.10;76.10
68433;DHT22;55412;51.350;17.056;2023-04-24T04:46:30;13.10;75.60
68433;DHT22;55412;51.350;17.056;2023-04-24T04:49:02;13.20;74.80
68433;DHT22;55412;51.350;17.056;2023-04-24T04:51:29;13.20;74.50
68433;DHT22;55412;51.350;17.056;2023-04-24T04:53:55;13.30;73.50
68433;DHT22;55412;51.350;17.056;2023-04-24T04:56:21;13.30;73.20
68433;DHT22;55412;51.350;17.056;2023-04-24T04:58:47;13.40;72.70
68433;DHT22;55412;51.350;17.056;2023-04-24T05:01:13;13.40;72.40
68433;DHT22;55412;51.350;17.056;2023-04-24T05:03:39;13.50;72.10
68433;DHT22;55412;51.350;17.056;2023-04-24T05:06:06;13.60;72.30
68433;DHT22;55412;51.350;17.056;2023-04-24T05:08:32;13.60;72.50
68433;DHT22;55412;51.350;17.056;2023-04-24T05:10:58;13.70;72.20
68433;DHT22;55412;51.350;17.056;2023-04-24T05:13:24;13.80;72.60
68433;DHT22;55412;51.350;17.056;2023-04-24T05:15:50;14.00;71.20
68433;DHT22;55412;51.350;17.056;2023-04-24T05:18:16;14.10;70.70
68433;DHT22;55412;51.350;17.056;2023-04-24T05:20:42;14.30;71.80
68433;DHT22;55412;51.350;17.056;2023-04-24T05:23:09;14.50;70.10
68433;DHT22;55412;51.350;17.056;2023-04-24T05:25:36;14.50;69.00
68433;DHT22;55412;51.350;17.056;2023-04-24T05:28:02;14.50;68.70
68433;DHT22;55412;51.350;17.056;2023-04-24T05:30:28;14.60;69.20
68433;DHT22;55412;51.350;17.056;2023-04-24T05:32:54;14.60;69.40
68433;DHT22;55412;51.350;17.056;2023-04-24T05:35:20;14.50;67.60
68433;DHT22;55412;51.350;17.056;2023-04-24T05:37:46;14.50;68.10
68433;DHT22;55412;51.350;17.056;2023-04-24T05:40:13;14.40;68.50
68433;DHT22;55412;51.350;17.056;2023-04-24T05:42:39;14.40;68.60
68433;DHT22;55412;51.350;17.056;2023-04-24T05:45:06;14.30;69.40
68433;DHT22;55412;51.350;17.056;2023-04-24T05:47:32;14.30;69.90
68433;DHT22;55412;51.350;17.056;2023-04-24T05:49:58;14.20;69.40
68433;DHT22;55412;51.350;17.056;2023-04-24T05:52:24;14.20;70.50
68433;DHT22;55412;51.350;17.056;2023-04-24T05:54:51;14.20;69.00
68433;DHT22;55412;51.350;17.056;2023-04-24T05:57:17;14.30;69.40
68433;DHT22;55412;51.350;17.056;2023-04-24T05:59:43;14.30;69.50
68433;DHT22;55412;51.350;17.056;2023-04-24T06:02:09;14.30;68.60
68433;DHT22;55412;51.350;17.056;2023-04-24T06:04:35;14.30;68.50
68433;DHT22;55412;51.350;17.056;2023-04-24T06:07:01;14.40;68.30
68433;DHT22;55412;51.350;17.056;2023-04-24T06:09:27;14.40;68.30
68433;DHT22;55412;51.350;17.056;2023-04-24T06:11:53;14.40;69.20
68433;DHT22;55412;51.350;17.056;2023-04-24T06:14:20;14.40;69.80
68433;DHT22;55412;51.350;17.056;2023-04-24T06:16:46;14.40;70.20
68433;DHT22;55412;51.350;17.056;2023-04-24T06:19:12;14.40;71.40
68433;DHT22;55412;51.350;17.056;2023-04-24T06:21:38;14.40;71.20
68433;DHT22;55412;51.350;17.056;2023-04-24T06:24:04;14.40;70.00
68433;DHT22;55412;51.350;17.056;2023-04-24T06:26:30;14.40;71.00
68433;DHT22;55412;51.350;17.056;2023-04-24T06:28:56;14.40;71.40
68433;DHT22;55412;51.350;17.056;2023-04-24T06:31:24;14.40;71.80
68433;DHT22;55412;51.350;17.056;2023-04-24T06:33:50;14.40;72.20
68433;DHT22;55412;51.350;17.056;2023-04-24T06:36:17;14.40;71.20
68433;DHT22;55412;51.350;17.056;2023-04-24T06:38:43;14.50;71.40
68433;DHT22;55412;51.350;17.056;2023-04-24T06:41:10;14.50;70.40
68433;DHT22;55412;51.350;17.056;2023-04-24T06:43:36;14.50;70.90
68433;DHT22;55412;51.350;17.056;2023-04-24T06:46:02;14.60;71.20
68433;DHT22;55412;51.350;17.056;2023-04-24T06:48:29;14.60;70.90
68433;DHT22;55412;51.350;17.056;2023-04-24T06:50:55;14.70;70.60
68433;DHT22;55412;51.350;17.056;2023-04-24T06:53:21;14.80;70.50
68433;DHT22;55412;51.350;17.056;2023-04-24T06:55:47;14.90;71.00
68433;DHT22;55412;51.350;17.056;2023-04-24T06:58:14;14.90;70.90
68433;DHT22;55412;51.350;17.056;2023-04-24T07:00:40;15.00;69.70
68433;DHT22;55412;51.350;17.056;2023-04-24T07:03:06;15.00;69.70
68433;DHT22;55412;51.350;17.056;2023-04-24T07:05:32;15.10;71.40
68433;DHT22;55412;51.350;17.056;2023-04-24T07:08:01;15.10;70.90
68433;DHT22;55412;51.350;17.056;2023-04-24T07:10:27;15.20;70.90
68433;DHT22;55412;51.350;17.056;2023-04-24T07:12:54;15.20;70.00
68433;DHT22;55412;51.350;17.056;2023-04-24T07:15:22;15.20;70.00
68433;DHT22;55412;51.350;17.056;2023-04-24T07:17:49;15.30;68.80
68433;DHT22;55412;51.350;17.056;2023-04-24T07:20:16;15.30;68.30
68433;DHT22;55412;51.350;17.056;2023-04-24T07:22:42;15.40;68.10
68433;DHT22;55412;51.350;17.056;2023-04-24T07:25:09;15.40;69.00
68433;DHT22;55412;51.350;17.056;2023-04-24T07:27:35;15.40;68.60
68433;DHT22;55412;51.350;17.056;2023-04-24T07:30:03;15.50;68.80
68433;DHT22;55412;51.350;17.056;2023-04-24T07:32:30;15.50;68.60
68433;DHT22;55412;51.350;17.056;2023-04-24T07:34:56;15.60;68.90
68433;DHT22;55412;51.350;17.056;2023-04-24T07:37:22;15.60;68.40
68433;DHT22;55412;51.350;17.056;2023-04-24T07:39:49;15.70;68.10
68433;DHT22;55412;51.350;17.056;2023-04-24T07:42:15;15.80;68.20
68433;DHT22;55412;51.350;17.056;2023-04-24T07:44:41;15.90;67.40
68433;DHT22;55412;51.350;17.056;2023-04-24T07:47:08;16.00;68.60
68433;DHT22;55412;51.350;17.056;2023-04-24T07:49:34;16.20;69.20
68433;DHT22;55412;51.350;17.056;2023-04-24T07:52:00;16.50;67.10
68433;DHT22;55412;51.350;17.056;2023-04-24T07:54:28;16.80;65.70
68433;DHT22;55412;51.350;17.056;2023-04-24T07:56:54;16.90;67.10
68433;DHT22;55412;51.350;17.056;2023-04-24T07:59:21;17.10;66.70
68433;DHT22;55412;51.350;17.056;2023-04-24T08:01:47;17.30;65.30
68433;DHT22;55412;51.350;17.056;2023-04-24T08:04:13;17.50;64.50
68433;DHT22;55412;51.350;17.056;2023-04-24T08:06:39;17.60;63.80
68433;DHT22;55412;51.350;17.056;2023-04-24T08:09:05;17.80;64.20
68433;DHT22;55412;51.350;17.056;2023-04-24T08:11:31;17.90;64.70
68433;DHT22;55412;51.350;17.056;2023-04-24T08:13:58;18.10;63.50
68433;DHT22;55412;51.350;17.056;2023-04-24T08:16:24;18.30;62.40
68433;DHT22;55412;51.350;17.056;2023-04-24T08:18:51;18.40;60.30
68433;DHT22;55412;51.350;17.056;2023-04-24T08:21:17;18.40;61.60
68433;DHT22;55412;51.350;17.056;2023-04-24T08:23:44;18.50;61.20
68433;DHT22;55412;51.350;17.056;2023-04-24T08:26:12;18.60;61.00
68433;DHT22;55412;51.350;17.056;2023-04-24T08:28:38;18.80;61.60
68433;DHT22;55412;51.350;17.056;2023-04-24T08:31:05;19.00;61.00
68433;DHT22;55412;51.350;17.056;2023-04-24T08:33:31;19.00;60.30
68433;DHT22;55412;51.350;17.056;2023-04-24T08:36:04;19.10;59.60
68433;DHT22;55412;51.350;17.056;2023-04-24T08:38:30;19.20;58.70
68433;DHT22;55412;51.350;17.056;2023-04-24T08:40:59;19.20;58.90
68433;DHT22;55412;51.350;17.056;2023-04-24T08:43:26;19.30;58.80
68433;DHT22;55412;51.350;17.056;2023-04-24T08:45:54;19.40;58.40
68433;DHT22;55412;51.350;17.056;2023-04-24T08:48:25;19.50;57.80
68433;DHT22;55412;51.350;17.056;2023-04-24T08:50:52;19.40;57.50
68433;DHT22;55412;51.350;17.056;2023-04-24T08:53:19;19.20;59.10
68433;DHT22;55412;51.350;17.056;2023-04-24T08:55:48;18.90;58.30
68433;DHT22;55412;51.350;17.056;2023-04-24T08:58:17;18.70;58.70
68433;DHT22;55412;51.350;17.056;2023-04-24T09:00:45;18.50;59.30
68433;DHT22;55412;51.350;17.056;2023-04-24T09:03:16;18.20;59.30
68433;DHT22;55412;51.350;17.056;2023-04-24T09:05:43;17.80;60.80
68433;DHT22;55412;51.350;17.056;2023-04-24T09:08:13;17.60;62.00
68433;DHT22;55412;51.350;17.056;2023-04-24T09:10:40;17.30;62.00
68433;DHT22;55412;51.350;17.056;2023-04-24T09:13:06;17.10;63.20
68433;DHT22;55412;51.350;17.056;2023-04-24T09:15:35;17.10;63.50
68433;DHT22;55412;51.350;17.056;2023-04-24T09:18:02;17.10;63.50
68433;DHT22;55412;51.350;17.056;2023-04-24T09:20:28;17.20;63.40
68433;DHT22;55412;51.350;17.056;2023-04-24T09:22:56;17.20;63.50
68433;DHT22;55412;51.350;17.056;2023-04-24T09:25:24;17.20;63.60
68433;DHT22;55412;51.350;17.056;2023-04-24T09:28:03;17.30;64.90
68433;DHT22;55412;51.350;17.056;2023-04-24T09:30:30;17.40;64.20
68433;DHT22;55412;51.350;17.056;2023-04-24T09:33:12;17.50;64.40
68433;DHT22;55412;51.350;17.056;2023-04-24T09:35:49;17.60;63.60
68433;DHT22;55412;51.350;17.056;2023-04-24T09:38:16;17.70;63.10
68433;DHT22;55412;51.350;17.056;2023-04-24T09:40:42;17.80;62.90
68433;DHT22;55412;51.350;17.056;2023-04-24T09:43:11;17.90;63.10
68433;DHT22;55412;51.350;17.056;2023-04-24T09:45:38;18.00;62.90
68433;DHT22;55412;51.350;17.056;2023-04-24T09:48:05;18.10;62.80
68433;DHT22;55412;51.350;17.056;2023-04-24T09:50:35;18.20;63.00
68433;DHT22;55412;51.350;17.056;2023-04-24T09:53:03;18.40;61.90
68433;DHT22;55412;51.350;17.056;2023-04-24T09:55:30;18.60;61.10
68433;DHT22;55412;51.350;17.056;2023-04-24T09:57:58;18.70;60.40
68433;DHT22;55412;51.350;17.056;2023-04-24T10:00:30;18.90;61.40
68433;DHT22;55412;51.350;17.056;2023-04-24T10:03:04;19.10;60.70
68433;DHT22;55412;51.350;17.056;2023-04-24T10:05:35;19.30;59.80
68433;DHT22;55412;51.350;17.056;2023-04-24T10:08:07;19.50;59.10
68433;DHT22;55412;51.350;17.056;2023-04-24T10:10:42;19.70;59.40
68433;DHT22;55412;51.350;17.056;2023-04-24T10:13:13;19.90;57.50
68433;DHT22;55412;51.350;17.056;2023-04-24T10:15:41;19.90;55.30
68433;DHT22;55412;51.350;17.056;2023-04-24T10:18:08;19.90;56.10
68433;DHT22;55412;51.350;17.056;2023-04-24T10:20:37;20.00;55.90
68433;DHT22;55412;51.350;17.056;2023-04-24T10:23:05;20.00;55.90
68433;DHT22;55412;51.350;17.056;2023-04-24T10:25:33;20.10;56.10
68433;DHT22;55412;51.350;17.056;2023-04-24T10:28:02;20.00;56.50
68433;DHT22;55412;51.350;17.056;2023-04-24T10:30:39;20.00;56.60
68433;DHT22;55412;51.350;17.056;2023-04-24T10:33:08;20.00;57.40
68433;DHT22;55412;51.350;17.056;2023-04-24T10:35:39;19.90;57.00
68433;DHT22;55412;51.350;17.056;2023-04-24T10:38:16;19.80;57.60
68433;DHT22;55412;51.350;17.056;2023-04-24T10:40:49;19.80;57.70
68433;DHT22;55412;51.350;17.056;2023-04-24T10:43:17;19.70;57.20
68433;DHT22;55412;51.350;17.056;2023-04-24T10:46:04;19.60;57.50
68433;DHT22;55412;51.350;17.056;2023-04-24T10:48:32;19.60;57.90
68433;DHT22;55412;51.350;17.056;2023-04-24T10:50:58;19.50;58.30
68433;DHT22;55412;51.350;17.056;2023-04-24T10:53:28;19.40;58.30
68433;DHT22;55412;51.350;17.056;2023-04-24T10:56:03;19.30;58.20
68433;DHT22;55412;51.350;17.056;2023-04-24T10:58:42;19.20;58.60
68433;DHT22;55412;51.350;17.056;2023-04-24T11:01:25;19.10;58.80
68433;DHT22;55412;51.350;17.056;2023-04-24T11:03:58;18.90;59.10
68433;DHT22;55412;51.350;17.056;2023-04-24T11:06:35;18.80;59.20
68433;DHT22;55412;51.350;17.056;2023-04-24T11:09:07;18.70;59.60
68433;DHT22;55412;51.350;17.056;2023-04-24T11:11:36;18.70;59.70
68433;DHT22;55412;51.350;17.056;2023-04-24T11:14:06;18.60;59.70
68433;DHT22;55412;51.350;17.056;2023-04-24T11:16:36;18.60;60.50
68433;DHT22;55412;51.350;17.056;2023-04-24T11:21:44;18.60;61.00
68433;DHT22;55412;51.350;17.056;2023-04-24T11:24:29;18.50;60.90
68433;DHT22;55412;51.350;17.056;2023-04-24T11:27:14;18.50;60.40
68433;DHT22;55412;51.350;17.056;2023-04-24T11:35:12;18.20;59.40
68433;DHT22;55412;51.350;17.056;2023-04-24T11:37:43;18.10;60.80
68433;DHT22;55412;51.350;17.056;2023-04-24T11:40:12;18.10;61.00
68433;DHT22;55412;51.350;17.056;2023-04-24T11:42:43;18.00;61.00
68433;DHT22;55412;51.350;17.056;2023-04-24T11:45:36;18.10;60.80
68433;DHT22;55412;51.350;17.056;2023-04-24T11:48:03;18.10;59.60
68433;DHT22;55412;51.350;17.056;2023-04-24T11:50:29;18.10;59.70
68433;DHT22;55412;51.350;17.056;2023-04-24T11:52:56;18.10;59.10
68433;DHT22;55412;51.350;17.056;2023-04-24T11:57:54;17.90;58.50
68433;DHT22;55412;51.350;17.056;2023-04-24T12:00:32;17.80;58.80
68433;DHT22;55412;51.350;17.056;2023-04-24T12:05:34;17.70;60.70
68433;DHT22;55412;51.350;17.056;2023-04-24T12:08:00;17.70;61.20
68433;DHT22;55412;51.350;17.056;2023-04-24T12:10:28;17.80;61.50
68433;DHT22;55412;51.350;17.056;2023-04-24T12:12:57;17.80;61.10
68433;DHT22;55412;51.350;17.056;2023-04-24T12:15:24;17.90;60.90
68433;DHT22;55412;51.350;17.056;2023-04-24T12:17:51;17.90;61.70
68433;DHT22;55412;51.350;17.056;2023-04-24T12:20:27;18.00;61.30
68433;DHT22;55412;51.350;17.056;2023-04-24T12:22:56;18.10;61.20
68433;DHT22;55412;51.350;17.056;2023-04-24T12:25:25;18.20;61.70
68433;DHT22;55412;51.350;17.056;2023-04-24T12:30:48;18.30;61.20
68433;DHT22;55412;51.350;17.056;2023-04-24T12:33:21;18.40;60.50
68433;DHT22;55412;51.350;17.056;2023-04-24T12:35:51;18.40;60.60
68433;DHT22;55412;51.350;17.056;2023-04-24T12:38:22;18.30;60.30
68433;DHT22;55412;51.350;17.056;2023-04-24T12:41:08;18.30;60.70
68433;DHT22;55412;51.350;17.056;2023-04-24T12:43:36;18.30;60.60
68433;DHT22;55412;51.350;17.056;2023-04-24T12:46:03;18.20;61.00
68433;DHT22;55412;51.350;17.056;2023-04-24T12:48:30;18.20;61.20
68433;DHT22;55412;51.350;17.056;2023-04-24T12:50:58;18.10;61.60
68433;DHT22;55412;51.350;17.056;2023-04-24T12:53:27;18.00;62.10
68433;DHT22;55412;51.350;17.056;2023-04-24T12:55:55;17.90;63.60
68433;DHT22;55412;51.350;17.056;2023-04-24T12:58:22;17.80;63.90
68433;DHT22;55412;51.350;17.056;2023-04-24T13:00:48;17.70;64.40
68433;DHT22;55412;51.350;17.056;2023-04-24T13:03:14;17.70;64.60
68433;DHT22;55412;51.350;17.056;2023-04-24T13:05:42;17.60;65.00
68433;DHT22;55412;51.350;17.056;2023-04-24T13:08:09;17.40;65.80
68433;DHT22;55412;51.350;17.056;2023-04-24T13:10:35;17.30;66.10
68433;DHT22;55412;51.350;17.056;2023-04-24T13:13:01;17.20;67.60
68433;DHT22;55412;51.350;17.056;2023-04-24T13:15:28;17.10;66.80
68433;DHT22;55412;51.350;17.056;2023-04-24T13:17:55;17.00;65.90
68433;DHT22;55412;51.350;17.056;2023-04-24T13:20:21;16.80;65.20
68433;DHT22;55412;51.350;17.056;2023-04-24T13:22:47;16.70;65.00
68433;DHT22;55412;51.350;17.056;2023-04-24T13:25:13;16.60;64.80
68433;DHT22;55412;51.350;17.056;2023-04-24T13:27:42;16.50;65.30
68433;DHT22;55412;51.350;17.056;2023-04-24T13:30:08;16.40;65.40
68433;DHT22;55412;51.350;17.056;2023-04-24T13:32:35;16.30;65.60
68433;DHT22;55412;51.350;17.056;2023-04-24T13:35:02;16.20;66.10
68433;DHT22;55412;51.350;17.056;2023-04-24T13:37:28;16.20;66.20
68433;DHT22;55412;51.350;17.056;2023-04-24T13:39:54;16.00;67.00
68433;DHT22;55412;51.350;17.056;2023-04-24T13:42:20;15.90;67.20
68433;DHT22;55412;51.350;17.056;2023-04-24T13:44:46;15.90;67.40
68433;DHT22;55412;51.350;17.056;2023-04-24T13:47:12;15.80;67.40
68433;DHT22;55412;51.350;17.056;2023-04-24T13:49:38;15.70;66.80
68433;DHT22;55412;51.350;17.056;2023-04-24T13:52:04;15.70;66.50
68433;DHT22;55412;51.350;17.056;2023-04-24T13:54:30;15.70;66.60
68433;DHT22;55412;51.350;17.056;2023-04-24T13:56:58;15.60;66.70
68433;DHT22;55412;51.350;17.056;2023-04-24T13:59:24;15.60;67.10
68433;DHT22;55412;51.350;17.056;2023-04-24T14:01:50;15.50;67.50
68433;DHT22;55412;51.350;17.056;2023-04-24T14:04:16;15.50;67.60
68433;DHT22;55412;51.350;17.056;2023-04-24T14:06:43;15.30;67.40
68433;DHT22;55412;51.350;17.056;2023-04-24T14:09:09;15.20;66.90
68433;DHT22;55412;51.350;17.056;2023-04-24T14:11:35;15.20;66.70
68433;DHT22;55412;51.350;17.056;2023-04-24T14:14:02;15.20;66.80
68433;DHT22;55412;51.350;17.056;2023-04-24T14:16:28;15.10;66.80
68433;DHT22;55412;51.350;17.056;2023-04-24T14:18:56;15.10;67.20
68433;DHT22;55412;51.350;17.056;2023-04-24T14:21:22;15.00;67.40
68433;DHT22;55412;51.350;17.056;2023-04-24T14:23:48;15.00;67.50
68433;DHT22;55412;51.350;17.056;2023-04-24T14:26:13;15.00;67.70
68433;DHT22;55412;51.350;17.056;2023-04-24T14:28:40;15.00;67.70
68433;DHT22;55412;51.350;17.056;2023-04-24T14:31:06;15.00;67.70
68433;DHT22;55412;51.350;17.056;2023-04-24T14:33:32;15.00;67.90
68433;DHT22;55412;51.350;17.056;2023-04-24T14:35:58;15.00;68.10
68433;DHT22;55412;51.350;17.056;2023-04-24T14:38:24;14.90;67.80
68433;DHT22;55412;51.350;17.056;2023-04-24T14:40:50;14.90;68.00
68433;DHT22;55412;51.350;17.056;2023-04-24T14:43:16;14.90;68.00
68433;DHT22;55412;51.350;17.056;2023-04-24T14:45:42;14.90;67.80
68433;DHT22;55412;51.350;17.056;2023-04-24T14:48:08;14.90;67.80
68433;DHT22;55412;51.350;17.056;2023-04-24T14:50:34;14.90;67.40
68433;DHT22;55412;51.350;17.056;2023-04-24T14:53:00;14.90;67.50
68433;DHT22;55412;51.350;17.056;2023-04-24T14:55:27;14.90;67.40
68433;DHT22;55412;51.350;17.056;2023-04-24T14:57:54;14.90;67.30
68433;DHT22;55412;51.350;17.056;2023-04-24T15:00:21;14.90;67.20
68433;DHT22;55412;51.350;17.056;2023-04-24T15:02:49;14.90;67.50
68433;DHT22;55412;51.350;17.056;2023-04-24T15:05:15;14.90;67.30
68433;DHT22;55412;51.350;17.056;2023-04-24T15:07:41;14.90;67.20
68433;DHT22;55412;51.350;17.056;2023-04-24T15:10:07;14.90;67.10
68433;DHT22;55412;51.350;17.056;2023-04-24T15:12:34;14.90;67.00
68433;DHT22;55412;51.350;17.056;2023-04-24T15:15:00;14.90;67.00
68433;DHT22;55412;51.350;17.056;2023-04-24T15:17:26;14.90;66.90
68433;DHT22;55412;51.350;17.056;2023-04-24T15:19:52;14.90;67.10
68433;DHT22;55412;51.350;17.056;2023-04-24T15:22:19;14.90;66.70
68433;DHT22;55412;51.350;17.056;2023-04-24T15:24:45;14.90;66.80
68433;DHT22;55412;51.350;17.056;2023-04-24T15:27:11;14.90;66.60
68433;DHT22;55412;51.350;17.056;2023-04-24T15:29:37;14.90;66.50
68433;DHT22;55412;51.350;17.056;2023-04-24T15:32:03;14.90;66.40